createdAt,value
2018-04-17T00:00:14.256Z,43.07
2018-04-17T00:02:47.624Z,43.27
2018-04-17T00:05:20.260Z,43.13
2018-04-17T00:07:53.636Z,43.13
2018-04-17T00:10:26.288Z,45.73
2018-04-17T00:12:58.896Z,44.87
2018-04-17T00:15:31.524Z,43.00
2018-04-17T00:18:04.124Z,41.23
2018-04-17T00:20:36.756Z,45.27
2018-04-17T00:23:09.352Z,46.23
2018-04-17T00:25:41.975Z,43.57
2018-04-17T00:28:14.578Z,41.10
2018-04-17T00:30:47.227Z,41.93
2018-04-17T00:33:19.841Z,36.10
2018-04-17T00:35:52.497Z,39.03
2018-04-17T00:38:25.107Z,44.00
2018-04-17T00:40:57.729Z,43.67
2018-04-17T00:43:30.336Z,41.17
2018-04-17T00:46:02.976Z,37.40
2018-04-17T00:48:35.578Z,40.23
2018-04-17T00:51:08.220Z,39.43
2018-04-17T00:53:52.440Z,42.97
2018-04-17T00:56:25.075Z,42.63
2018-04-17T00:59:03.527Z,41.67
2018-04-17T01:01:36.145Z,40.13
2018-04-17T01:04:08.751Z,44.70
2018-04-17T01:06:41.383Z,41.83
2018-04-17T01:09:14.743Z,36.57
2018-04-17T01:11:47.381Z,38.03
2018-04-17T01:14:20.747Z,42.03
2018-04-17T01:16:53.391Z,38.73
2018-04-17T01:19:26.752Z,43.60
2018-04-17T01:21:59.377Z,47.57
2018-04-17T01:24:32.753Z,40.17
2018-04-17T01:27:05.371Z,43.57
2018-04-17T01:29:37.969Z,43.53
2018-04-17T01:32:10.615Z,44.87
2018-04-17T01:34:43.226Z,44.13
2018-04-17T01:37:15.870Z,46.10
2018-04-17T01:39:48.478Z,46.30
2018-04-17T01:42:21.131Z,46.13
2018-04-17T01:44:53.735Z,45.47
2018-04-17T01:47:27.141Z,45.13
2018-04-17T01:50:00.503Z,49.67
2018-04-17T01:52:33.115Z,46.13
2018-04-17T01:55:05.715Z,47.87
2018-04-17T01:57:38.358Z,48.67
2018-04-17T02:00:10.951Z,42.80
2018-04-17T02:02:43.588Z,44.83
2018-04-17T02:05:16.183Z,43.60
2018-04-17T02:07:48.803Z,45.27
2018-04-17T02:10:21.399Z,42.77
2018-04-17T02:12:54.790Z,43.73
2018-04-17T02:15:28.157Z,50.40
2018-04-17T02:18:00.767Z,45.07
2018-04-17T02:20:33.374Z,43.37
2018-04-17T02:23:05.992Z,42.77
2018-04-17T02:25:38.582Z,42.53
2018-04-17T02:28:11.211Z,47.00
2018-04-17T02:30:43.803Z,45.13
2018-04-17T02:33:16.440Z,45.37
2018-04-17T02:35:49.802Z,44.97
2018-04-17T02:38:22.432Z,48.63
2018-04-17T02:40:55.019Z,46.30
2018-04-17T02:43:27.639Z,44.37
2018-04-17T02:46:00.235Z,39.53
2018-04-17T02:48:32.871Z,44.97
2018-04-17T02:51:05.472Z,47.60
2018-04-17T02:53:38.092Z,55.00
2018-04-17T02:56:11.451Z,50.93
2018-04-17T02:58:44.097Z,47.90
2018-04-17T03:01:17.472Z,51.33
2018-04-17T03:03:50.128Z,47.37
2018-04-17T03:06:22.727Z,42.80
2018-04-17T03:08:55.367Z,45.90
2018-04-17T03:11:27.971Z,41.30
2018-04-17T03:14:01.355Z,38.87
2018-04-17T03:16:33.946Z,40.40
2018-04-17T03:19:06.572Z,43.77
2018-04-17T03:21:39.169Z,41.40
2018-04-17T03:24:11.816Z,48.40
2018-04-17T03:26:44.411Z,37.73
2018-04-17T03:29:17.037Z,45.00
2018-04-17T03:31:50.395Z,43.93
2018-04-17T03:34:23.044Z,48.87
2018-04-17T03:36:55.640Z,51.63
2018-04-17T03:39:28.274Z,51.43
2018-04-17T03:42:00.869Z,48.37
2018-04-17T03:44:33.502Z,49.17
2018-04-17T03:47:06.869Z,46.97
2018-04-17T03:49:39.520Z,43.87
2018-04-17T03:52:12.116Z,47.87
2018-04-17T03:54:46.615Z,42.03
2018-04-17T03:57:20.190Z,46.70
2018-04-17T03:59:52.807Z,43.20
2018-04-17T04:02:25.402Z,41.40
2018-04-17T04:04:58.047Z,46.00
2018-04-17T04:07:30.643Z,48.00
2018-04-17T04:10:03.297Z,44.10
2018-04-17T04:12:35.909Z,43.70
2018-04-17T04:15:08.540Z,43.17
2018-04-17T04:17:52.995Z,44.03
2018-04-17T04:20:37.551Z,46.77
2018-04-17T04:23:21.991Z,46.17
2018-04-17T04:26:13.063Z,47.77
2018-04-17T04:28:45.668Z,48.23
2018-04-17T04:31:18.284Z,36.53
2018-04-17T04:33:51.652Z,42.17
2018-04-17T04:36:24.258Z,52.40
2018-04-17T04:38:56.859Z,47.90
2018-04-17T04:41:29.509Z,37.33
2018-04-17T04:44:02.109Z,42.40
2018-04-17T04:46:34.749Z,45.20
2018-04-17T04:49:07.346Z,44.30
2018-04-17T04:51:39.958Z,28.30
2018-04-17T04:54:12.559Z,34.20
2018-04-17T04:56:45.209Z,24.13
2018-04-17T04:59:17.796Z,38.83
2018-04-17T05:01:50.430Z,33.77
2018-04-17T05:04:23.034Z,31.50
2018-04-17T05:06:55.668Z,35.80
2018-04-17T05:09:28.255Z,37.47
2018-04-17T05:12:00.878Z,48.77
2018-04-17T05:14:34.239Z,49.03
2018-04-17T05:17:06.849Z,51.87
2018-04-17T05:19:39.450Z,55.63
2018-04-17T05:22:12.066Z,51.47
2018-04-17T05:24:45.427Z,49.43
2018-04-17T05:27:18.042Z,56.20
2018-04-17T05:29:50.640Z,53.73
2018-04-17T05:32:23.272Z,50.20
2018-04-17T05:34:55.863Z,51.07
2018-04-17T05:37:28.489Z,44.53
2018-04-17T05:40:01.082Z,53.97
2018-04-17T05:42:33.718Z,52.00
2018-04-17T05:45:07.070Z,51.67
2018-04-17T05:47:39.679Z,54.53
2018-04-17T05:50:12.321Z,50.63
2018-04-17T05:52:44.898Z,52.00
2018-04-17T05:55:18.269Z,54.03
2018-04-17T05:57:50.908Z,51.40
2018-04-17T06:00:23.521Z,54.73
2018-04-17T06:02:56.158Z,52.30
2018-04-17T06:05:28.759Z,59.33
2018-04-17T06:08:02.180Z,54.20
2018-04-17T06:10:35.550Z,52.70
2018-04-17T06:13:08.197Z,45.43
2018-04-17T06:15:40.798Z,48.10
2018-04-17T06:18:13.447Z,54.60
2018-04-17T06:20:46.046Z,72.00
2018-04-17T06:23:19.495Z,83.47
2018-04-17T06:25:52.823Z,58.83
2018-04-17T06:28:25.444Z,54.40
2018-04-17T06:30:58.051Z,63.33
2018-04-17T06:33:31.460Z,62.77
2018-04-17T06:36:04.840Z,53.20
2018-04-17T06:38:37.494Z,50.60
2018-04-17T06:41:10.100Z,55.70
2018-04-17T06:43:42.720Z,49.10
2018-04-17T06:46:15.314Z,50.50
2018-04-17T06:48:47.951Z,50.57
2018-04-17T06:51:20.555Z,47.93
2018-04-17T06:53:53.192Z,52.90
2018-04-17T06:56:25.801Z,48.60
2018-04-17T06:58:59.188Z,52.13
2018-04-17T07:01:31.827Z,48.70
2018-04-17T07:04:04.465Z,55.07
2018-04-17T07:06:37.076Z,47.37
2018-04-17T07:09:09.715Z,50.43
2018-04-17T07:11:42.320Z,48.70
2018-04-17T07:14:14.968Z,41.27
2018-04-17T07:16:48.346Z,46.90
2018-04-17T07:19:20.971Z,46.13
2018-04-17T07:21:54.326Z,38.57
2018-04-17T07:24:26.959Z,43.13
2018-04-17T07:27:00.328Z,42.77
2018-04-17T07:29:32.967Z,42.63
2018-04-17T07:32:06.332Z,33.27
2018-04-17T07:37:51.514Z,29.93
2018-04-17T07:40:24.189Z,29.33
2018-04-17T07:42:56.800Z,25.57
2018-04-17T07:45:29.442Z,24.47
2018-04-17T07:48:16.696Z,22.27
2018-04-17T07:50:49.306Z,19.47
2018-04-17T07:53:23.507Z,28.83
2018-04-17T07:55:56.120Z,20.60
2018-04-17T07:58:29.491Z,20.80
2018-04-17T08:01:02.097Z,17.53
2018-04-17T08:03:34.695Z,18.53
2018-04-17T08:06:07.321Z,17.87
2018-04-17T08:08:39.923Z,20.27
2018-04-17T08:11:12.534Z,15.17
2018-04-17T08:13:45.131Z,14.97
2018-04-17T08:16:17.737Z,15.03
2018-04-17T08:18:50.335Z,14.23
2018-04-17T08:21:22.947Z,13.07
2018-04-17T08:23:56.304Z,9.43
2018-04-17T08:26:28.928Z,8.33
2018-04-17T08:29:01.524Z,7.03
2018-04-17T08:31:34.140Z,9.03
2018-04-17T08:34:07.498Z,6.30
2018-04-17T08:36:40.107Z,5.70
2018-04-17T08:39:12.699Z,9.13
2018-04-17T08:41:45.318Z,9.53
2018-04-17T08:44:18.694Z,11.00
2018-04-17T08:46:51.305Z,7.33
2018-04-17T08:49:23.893Z,10.07
2018-04-17T08:51:56.508Z,9.17
2018-04-17T08:54:29.922Z,11.47
2018-04-17T08:57:02.520Z,8.47
2018-04-17T08:59:35.135Z,7.03
2018-04-17T09:02:07.762Z,11.50
2018-04-17T09:04:40.355Z,5.83
2018-04-17T09:07:12.962Z,6.07
2018-04-17T09:09:46.319Z,7.93
2018-04-17T09:12:18.929Z,6.87
2018-04-17T09:14:51.518Z,7.77
2018-04-17T09:17:24.125Z,10.77
2018-04-17T09:19:56.718Z,5.73
2018-04-17T09:22:29.331Z,9.43
2018-04-17T09:25:02.698Z,5.27
2018-04-17T09:27:35.359Z,6.63
2018-04-17T09:30:08.685Z,6.60
2018-04-17T09:32:41.299Z,7.50
2018-04-17T09:35:13.899Z,11.70
2018-04-17T09:37:46.519Z,11.47
2018-04-17T09:40:19.108Z,7.37
2018-04-17T09:42:52.483Z,8.53
2018-04-17T09:45:25.071Z,8.40
2018-04-17T09:47:57.681Z,18.67
2018-04-17T09:50:30.325Z,26.30
2018-04-17T09:53:03.662Z,8.33
2018-04-17T09:55:36.269Z,12.70
2018-04-17T09:58:08.883Z,9.90
2018-04-17T10:00:47.847Z,8.10
2018-04-17T10:03:20.456Z,5.83
2018-04-17T10:05:53.046Z,5.23
2018-04-17T10:08:25.660Z,6.90
2018-04-17T10:10:58.260Z,11.13
2018-04-17T10:13:30.880Z,7.27
2018-04-17T10:16:04.242Z,7.07
2018-04-17T10:18:36.863Z,7.07
2018-04-17T10:21:09.460Z,7.67
2018-04-17T10:23:42.841Z,7.80
2018-04-17T10:26:15.434Z,6.70
2018-04-17T10:28:48.047Z,7.67
2018-04-17T10:31:20.639Z,8.43
2018-04-17T10:33:53.256Z,9.47
2018-04-17T10:36:26.606Z,9.00
2018-04-17T10:38:59.210Z,9.97
2018-04-17T10:41:31.799Z,7.27
2018-04-17T10:44:04.419Z,8.57
2018-04-17T10:46:37.774Z,9.40
2018-04-17T10:49:10.389Z,8.30
2018-04-17T10:51:42.992Z,5.87
2018-04-17T10:54:15.612Z,8.83
2018-04-17T10:56:48.979Z,6.67
2018-04-17T10:59:21.595Z,9.00
2018-04-17T11:01:54.178Z,6.93
2018-04-17T11:04:26.788Z,8.30
2018-04-17T11:07:00.142Z,8.17
2018-04-17T11:09:32.756Z,8.43
2018-04-17T11:12:05.342Z,8.77
2018-04-17T11:14:37.967Z,8.40
2018-04-17T11:17:11.323Z,9.87
2018-04-17T11:19:43.928Z,7.03
2018-04-17T11:22:16.520Z,10.20
2018-04-17T11:24:49.131Z,8.87
2018-04-17T11:27:21.729Z,7.77
2018-04-17T11:29:54.337Z,12.83
2018-04-17T11:32:27.704Z,8.93
2018-04-17T11:35:00.319Z,10.90
2018-04-17T11:37:32.918Z,7.43
2018-04-17T11:40:05.525Z,7.67
2018-04-17T11:42:38.887Z,6.70
2018-04-17T11:45:11.499Z,7.90
2018-04-17T11:47:44.088Z,8.43
2018-04-17T11:50:16.697Z,11.50
2018-04-17T11:52:50.052Z,5.60
2018-04-17T11:55:22.672Z,6.70
2018-04-17T11:57:55.263Z,6.73
2018-04-17T12:00:27.875Z,8.97
2018-04-17T12:03:01.281Z,6.90
2018-04-17T12:05:33.876Z,8.03
2018-04-17T12:08:07.246Z,9.83
2018-04-17T12:10:39.844Z,8.77
2018-04-17T12:13:12.458Z,7.80
2018-04-17T12:15:45.054Z,7.93
2018-04-17T12:18:17.672Z,6.80
2018-04-17T12:20:50.268Z,8.00
2018-04-17T12:23:23.719Z,7.37
2018-04-17T12:25:56.314Z,7.90
2018-04-17T12:28:28.926Z,12.73
2018-04-17T12:31:01.528Z,7.67
2018-04-17T12:33:34.915Z,5.93
2018-04-17T12:36:07.497Z,7.87
2018-04-17T12:38:40.097Z,9.57
2018-04-17T12:41:12.678Z,8.87
2018-04-17T12:43:45.287Z,9.80
2018-04-17T12:46:17.884Z,7.33
2018-04-17T12:48:51.271Z,11.67
2018-04-17T12:51:23.868Z,8.20
2018-04-17T12:53:56.479Z,6.90
2018-04-17T12:56:29.835Z,6.80
2018-04-17T12:59:02.450Z,7.93
2018-04-17T13:01:35.043Z,8.40
2018-04-17T13:04:07.668Z,12.23
2018-04-17T13:06:41.036Z,8.60
2018-04-17T13:09:13.651Z,9.00
2018-04-17T13:11:47.023Z,11.70
2018-04-17T13:14:19.627Z,7.23
2018-04-17T13:16:52.219Z,5.70
2018-04-17T13:19:24.836Z,10.30
2018-04-17T13:21:58.199Z,9.80
2018-04-17T13:24:31.268Z,6.50
2018-04-17T13:27:04.632Z,8.73
2018-04-17T13:29:37.242Z,8.67
2018-04-17T13:32:09.835Z,9.03
2018-04-17T13:34:42.448Z,7.37
2018-04-17T13:37:15.040Z,7.57
2018-04-17T13:39:48.418Z,9.80
2018-04-17T13:42:21.055Z,13.33
2018-04-17T13:44:54.430Z,8.80
2018-04-17T13:47:27.019Z,7.77
2018-04-17T13:50:00.415Z,7.13
2018-04-17T13:52:33.012Z,9.20
2018-04-17T13:55:05.625Z,8.27
2018-04-17T13:57:38.988Z,13.33
2018-04-17T14:00:11.602Z,12.97
2018-04-17T14:02:44.186Z,9.17
2018-04-17T14:05:16.787Z,9.13
2018-04-17T14:07:49.373Z,8.50
2018-04-17T14:10:21.975Z,9.30
2018-04-17T14:12:55.337Z,9.53
2018-04-17T14:15:27.965Z,8.20
2018-04-17T14:18:00.571Z,7.27
2018-04-17T14:20:33.942Z,7.03
2018-04-17T14:23:06.539Z,4.87
2018-04-17T14:25:39.155Z,6.40
2018-04-17T14:28:12.527Z,8.53
2018-04-17T14:30:45.139Z,5.73
2018-04-17T14:33:17.735Z,9.60
2018-04-17T14:35:50.346Z,7.17
2018-04-17T14:38:23.707Z,8.13
2018-04-17T14:40:56.318Z,6.07
2018-04-17T14:43:28.917Z,5.80
2018-04-17T14:46:01.540Z,7.87
2018-04-17T14:48:34.144Z,5.33
2018-04-17T14:51:06.750Z,5.57
2018-04-17T14:53:39.338Z,9.50
2018-04-17T14:56:11.949Z,5.57
2018-04-17T14:58:44.531Z,6.47
2018-04-17T15:01:17.140Z,10.53
2018-04-17T15:03:49.731Z,8.40
2018-04-17T15:06:22.360Z,6.30
2018-04-17T15:08:55.719Z,7.87
2018-04-17T15:11:28.330Z,5.37
2018-04-17T15:14:00.945Z,13.43
2018-04-17T15:16:34.331Z,9.10
2018-04-17T15:19:06.923Z,7.63
2018-04-17T15:21:39.543Z,4.67
2018-04-17T15:24:12.899Z,7.93
2018-04-17T15:26:45.544Z,8.20
2018-04-17T15:29:18.944Z,9.80
2018-04-17T15:31:52.343Z,8.10
2018-04-17T15:34:24.975Z,10.10
2018-04-17T15:36:57.584Z,13.43
2018-04-17T15:39:30.175Z,8.23
2018-04-17T15:42:27.857Z,9.80
2018-04-17T15:45:00.500Z,8.37
2018-04-17T15:47:33.101Z,22.50
2018-04-17T15:50:06.525Z,13.57
2018-04-17T15:52:39.209Z,15.80
2018-04-17T15:55:12.608Z,7.13
2018-04-17T15:57:45.983Z,12.93
2018-04-17T16:00:18.634Z,18.17
2018-04-17T16:02:51.235Z,13.93
2018-04-17T16:05:23.864Z,6.40
2018-04-17T16:07:56.454Z,7.20
2018-04-17T16:10:29.098Z,9.87
2018-04-17T16:13:01.801Z,8.23
2018-04-17T16:15:34.368Z,23.70
2018-04-17T16:18:07.737Z,9.20
2018-04-17T16:20:40.354Z,10.23
2018-04-17T16:23:12.946Z,7.73
2018-04-17T16:25:45.568Z,11.80
2018-04-17T16:28:18.172Z,9.70
2018-04-17T16:30:50.819Z,14.77
2018-04-17T16:33:23.431Z,4.90
2018-04-17T16:35:56.811Z,10.83
2018-04-17T16:38:29.408Z,10.97
2018-04-17T16:41:02.038Z,5.37
2018-04-17T16:43:34.635Z,10.20
2018-04-17T16:46:07.257Z,8.50
2018-04-17T16:48:39.861Z,8.90
2018-04-17T16:51:12.522Z,10.60
2018-04-17T16:53:45.107Z,7.37
2018-04-17T16:56:17.724Z,5.60
2018-04-17T16:58:50.332Z,6.63
2018-04-17T17:01:22.957Z,9.10
2018-04-17T17:03:55.554Z,13.70
2018-04-17T17:06:28.167Z,10.10
2018-04-17T17:09:00.789Z,10.40
2018-04-17T17:11:33.415Z,11.67
2018-04-17T17:14:06.026Z,9.70
2018-04-17T17:16:38.651Z,9.77
2018-04-17T17:19:11.259Z,19.90
2018-04-17T17:21:43.881Z,8.40
2018-04-17T17:24:17.255Z,15.10
2018-04-17T17:26:49.870Z,10.70
2018-04-17T17:29:23.252Z,18.87
2018-04-17T17:31:55.868Z,9.57
2018-04-17T17:34:29.239Z,20.23
2018-04-17T17:37:01.887Z,10.30
2018-04-17T17:39:34.519Z,6.67
2018-04-17T17:42:07.155Z,10.10
2018-04-17T17:44:40.523Z,6.67
2018-04-17T17:47:13.143Z,11.97
2018-04-17T17:49:46.507Z,13.77
2018-04-17T17:52:19.171Z,10.87
2018-04-17T17:54:51.830Z,11.53
2018-04-17T17:57:24.485Z,12.90
2018-04-17T17:59:57.067Z,8.80
2018-04-17T18:02:29.682Z,13.17
2018-04-17T18:05:02.323Z,13.13
2018-04-17T18:07:34.955Z,12.63
2018-04-17T18:10:07.546Z,15.50
2018-04-17T18:12:40.165Z,10.87
2018-04-17T18:15:12.766Z,14.67
2018-04-17T18:17:45.420Z,18.60
2018-04-17T18:20:17.999Z,10.70
2018-04-17T18:22:50.636Z,17.27
2018-04-17T18:25:37.082Z,20.47
2018-04-17T18:28:10.497Z,15.17
2018-04-17T18:30:43.872Z,32.73
2018-04-17T18:33:16.496Z,28.07
2018-04-17T18:35:49.095Z,24.63
2018-04-17T18:38:21.713Z,30.53
2018-04-17T18:40:54.316Z,30.97
2018-04-17T18:43:26.926Z,28.07
2018-04-17T18:45:59.523Z,22.23
2018-04-17T18:48:32.175Z,18.00
2018-04-17T18:51:04.795Z,19.23
2018-04-17T18:53:37.422Z,17.77
2018-04-17T18:56:10.773Z,23.73
2018-04-17T18:58:43.415Z,20.47
2018-04-17T19:01:16.783Z,54.73
2018-04-17T19:03:49.418Z,70.20
2018-04-17T19:06:22.817Z,72.27
2018-04-17T19:08:55.442Z,61.53
2018-04-17T19:11:28.048Z,52.60
2018-04-17T19:14:00.730Z,29.30
2018-04-17T19:16:33.331Z,31.07
2018-04-17T19:19:05.957Z,17.60
2018-04-17T19:21:38.568Z,17.83
2018-04-17T19:24:11.206Z,15.87
2018-04-17T19:26:43.803Z,9.60
2018-04-17T19:29:16.429Z,9.50
2018-04-17T19:31:49.018Z,8.63
2018-04-17T19:34:25.187Z,10.20
2018-04-17T19:36:57.799Z,7.33
2018-04-17T19:39:30.447Z,10.07
2018-04-17T19:42:03.039Z,6.40
2018-04-17T19:44:35.675Z,12.57
2018-04-17T19:47:08.272Z,10.30
2018-04-17T19:49:40.907Z,6.60
2018-04-17T19:52:13.503Z,11.83
2018-04-17T19:55:01.244Z,9.80
2018-04-17T19:57:33.845Z,6.27
2018-04-17T20:00:06.469Z,8.37
2018-04-17T20:02:39.067Z,9.30
2018-04-17T20:05:11.690Z,8.57
2018-04-17T20:07:45.047Z,9.17
2018-04-17T20:10:17.685Z,8.73
2018-04-17T20:12:51.048Z,7.23
2018-04-17T20:15:23.662Z,7.80
2018-04-17T20:17:56.263Z,12.63
2018-04-17T20:20:28.908Z,9.53
2018-04-17T20:23:01.490Z,14.93
2018-04-17T20:25:34.122Z,8.10
2018-04-17T20:28:06.715Z,7.97
2018-04-17T20:30:39.335Z,10.37
2018-04-17T20:33:12.690Z,14.43
2018-04-17T20:35:45.319Z,10.33
2018-04-17T20:38:17.911Z,13.83
2018-04-17T20:40:50.519Z,7.87
2018-04-17T20:43:23.888Z,10.37
2018-04-17T20:45:56.542Z,11.00
2018-04-17T20:48:29.134Z,8.20
2018-04-17T20:51:01.777Z,11.00
2018-04-17T20:53:34.380Z,11.60
2018-04-17T20:56:07.003Z,9.47
2018-04-17T20:58:39.611Z,7.93
2018-04-17T21:01:12.280Z,8.13
2018-04-17T21:03:44.846Z,10.13
2018-04-17T21:09:26.186Z,5.63
2018-04-17T21:11:59.567Z,7.37
2018-04-17T21:14:32.180Z,8.63
2018-04-17T21:17:04.800Z,12.10
2018-04-17T21:19:37.406Z,9.23
2018-04-17T21:22:10.038Z,6.17
2018-04-17T21:24:42.634Z,7.83
2018-04-17T21:27:15.252Z,5.83
2018-04-17T21:29:48.611Z,10.03
2018-04-17T21:32:21.243Z,8.13
2018-04-17T21:34:53.847Z,8.60
2018-04-17T21:37:26.468Z,6.17
2018-04-17T21:39:59.060Z,9.33
2018-04-17T21:42:31.691Z,4.63
2018-04-17T21:45:04.289Z,13.53
2018-04-17T21:47:36.925Z,8.53
2018-04-17T21:50:09.525Z,6.50
2018-04-17T21:52:42.144Z,14.13
2018-04-17T21:55:14.736Z,7.83
2018-04-17T21:57:47.353Z,6.80
2018-04-17T22:00:19.943Z,9.43
2018-04-17T22:02:52.570Z,6.50
2018-04-17T22:05:25.158Z,5.30
2018-04-17T22:07:57.826Z,5.70
2018-04-17T22:10:31.198Z,11.50
2018-04-17T22:13:03.815Z,7.23
2018-04-17T22:15:36.427Z,8.10
2018-04-17T22:18:09.830Z,7.47
2018-04-17T22:20:43.185Z,9.53
2018-04-17T22:23:15.793Z,8.83
2018-04-17T22:25:48.392Z,8.87
2018-04-17T22:28:21.014Z,6.90
2018-04-17T22:30:54.378Z,7.10
2018-04-17T22:33:26.990Z,5.23
2018-04-17T22:35:59.577Z,10.53
2018-04-17T22:38:32.223Z,9.47
2018-04-17T22:41:04.825Z,9.37
2018-04-17T22:43:37.480Z,7.63
2018-04-17T22:46:10.847Z,9.50
2018-04-17T22:48:43.463Z,7.63
2018-04-17T22:51:16.150Z,7.10
2018-04-17T22:53:48.763Z,7.77
2018-04-17T22:56:35.906Z,5.70
2018-04-17T22:59:09.281Z,5.90
2018-04-17T23:01:41.879Z,10.87
2018-04-17T23:04:14.491Z,8.27
2018-04-17T23:06:47.846Z,11.00
2018-04-17T23:09:21.235Z,9.77
2018-04-17T23:11:53.840Z,6.33
2018-04-17T23:14:26.510Z,8.43
2018-04-17T23:16:59.856Z,5.43
2018-04-17T23:19:32.478Z,6.20
2018-04-17T23:22:05.080Z,10.60
2018-04-17T23:24:38.491Z,9.50
2018-04-17T23:27:11.855Z,8.33
2018-04-17T23:29:44.476Z,11.83
2018-04-17T23:32:17.067Z,8.97
2018-04-17T23:34:49.670Z,7.97
2018-04-17T23:37:23.105Z,5.47
2018-04-17T23:39:55.730Z,9.73
2018-04-17T23:42:28.331Z,13.43
2018-04-17T23:45:00.975Z,9.73
2018-04-17T23:47:33.567Z,7.07
2018-04-17T23:50:06.183Z,8.77
2018-04-17T23:52:39.556Z,6.07
2018-04-17T23:55:12.988Z,6.40
2018-04-17T23:57:45.591Z,9.60
